sensor_id;sensor_type;location;lat;lon;timestamp;P1;durP1;ratioP1;P2;durP2;ratioP2
45466;SDS011;31212;49.734;8.490;2022-10-26T00:01:17;5.10;;;1.95;;
45466;SDS011;31212;49.734;8.490;2022-10-26T00:03:46;7.07;;;2.72;;
45466;SDS011;31212;49.734;8.490;2022-10-26T00:06:13;5.43;;;2.53;;
45466;SDS011;31212;49.734;8.490;2022-10-26T00:08:41;6.50;;;2.28;;
45466;SDS011;31212;49.734;8.490;2022-10-26T00:11:08;4.13;;;2.28;;
45466;SDS011;31212;49.734;8.490;2022-10-26T00:13:36;3.60;;;2.10;;
45466;SDS011;31212;49.734;8.490;2022-10-26T00:16:06;3.28;;;2.13;;
45466;SDS011;31212;49.734;8.490;2022-10-26T00:18:34;6.95;;;3.03;;
45466;SDS011;31212;49.734;8.490;2022-10-26T00:21:02;4.60;;;2.35;;
45466;SDS011;31212;49.734;8.490;2022-10-26T00:23:30;5.03;;;2.53;;
45466;SDS011;31212;49.734;8.490;2022-10-26T00:25:56;11.68;;;2.65;;
45466;SDS011;31212;49.734;8.490;2022-10-26T00:28:23;3.95;;;2.72;;
45466;SDS011;31212;49.734;8.490;2022-10-26T00:30:50;7.05;;;3.13;;
45466;SDS011;31212;49.734;8.490;2022-10-26T00:33:17;7.95;;;2.28;;
45466;SDS011;31212;49.734;8.490;2022-10-26T00:35:45;8.68;;;2.47;;
45466;SDS011;31212;49.734;8.490;2022-10-26T00:38:14;5.22;;;2.38;;
45466;SDS011;31212;49.734;8.490;2022-10-26T00:40:40;3.30;;;2.13;;
45466;SDS011;31212;49.734;8.490;2022-10-26T00:43:10;7.95;;;2.63;;
45466;SDS011;31212;49.734;8.490;2022-10-26T00:45:41;7.88;;;1.98;;
45466;SDS011;31212;49.734;8.490;2022-10-26T00:48:10;8.63;;;2.60;;
45466;SDS011;31212;49.734;8.490;2022-10-26T00:50:49;3.83;;;2.20;;
45466;SDS011;31212;49.734;8.490;2022-10-26T00:53:20;6.00;;;2.35;;
45466;SDS011;31212;49.734;8.490;2022-10-26T00:55:48;2.97;;;2.15;;
45466;SDS011;31212;49.734;8.490;2022-10-26T00:58:17;4.82;;;2.05;;
45466;SDS011;31212;49.734;8.490;2022-10-26T01:00:46;8.80;;;2.67;;
45466;SDS011;31212;49.734;8.490;2022-10-26T01:03:14;3.28;;;1.95;;
45466;SDS011;31212;49.734;8.490;2022-10-26T01:05:42;4.10;;;2.03;;
45466;SDS011;31212;49.734;8.490;2022-10-26T01:08:11;4.25;;;1.88;;
45466;SDS011;31212;49.734;8.490;2022-10-26T01:10:40;6.07;;;3.08;;
45466;SDS011;31212;49.734;8.490;2022-10-26T01:13:08;4.35;;;1.70;;
45466;SDS011;31212;49.734;8.490;2022-10-26T01:15:37;5.15;;;1.58;;
45466;SDS011;31212;49.734;8.490;2022-10-26T01:18:14;2.38;;;1.90;;
45466;SDS011;31212;49.734;8.490;2022-10-26T01:23:50;4.60;;;2.25;;
45466;SDS011;31212;49.734;8.490;2022-10-26T01:26:36;4.43;;;2.83;;
45466;SDS011;31212;49.734;8.490;2022-10-26T01:29:25;3.95;;;2.65;;
45466;SDS011;31212;49.734;8.490;2022-10-26T01:32:07;12.15;;;2.20;;
45466;SDS011;31212;49.734;8.490;2022-10-26T01:34:38;3.53;;;1.90;;
45466;SDS011;31212;49.734;8.490;2022-10-26T01:37:11;7.15;;;2.20;;
45466;SDS011;31212;49.734;8.490;2022-10-26T01:39:40;5.32;;;2.83;;
45466;SDS011;31212;49.734;8.490;2022-10-26T01:42:11;1.73;;;1.55;;
45466;SDS011;31212;49.734;8.490;2022-10-26T01:44:41;5.82;;;2.03;;
45466;SDS011;31212;49.734;8.490;2022-10-26T01:47:13;2.88;;;1.90;;
45466;SDS011;31212;49.734;8.490;2022-10-26T01:49:43;5.47;;;2.22;;
45466;SDS011;31212;49.734;8.490;2022-10-26T01:52:13;6.40;;;2.15;;
45466;SDS011;31212;49.734;8.490;2022-10-26T01:54:39;4.03;;;1.40;;
45466;SDS011;31212;49.734;8.490;2022-10-26T01:57:07;6.53;;;1.67;;
45466;SDS011;31212;49.734;8.490;2022-10-26T01:59:40;3.58;;;2.00;;
45466;SDS011;31212;49.734;8.490;2022-10-26T02:02:26;2.53;;;1.70;;
45466;SDS011;31212;49.734;8.490;2022-10-26T02:05:14;9.48;;;2.20;;
45466;SDS011;31212;49.734;8.490;2022-10-26T02:07:54;6.00;;;2.00;;
45466;SDS011;31212;49.734;8.490;2022-10-26T02:10:29;3.65;;;1.65;;
45466;SDS011;31212;49.734;8.490;2022-10-26T02:13:07;1.98;;;1.50;;
45466;SDS011;31212;49.734;8.490;2022-10-26T02:15:44;7.65;;;2.50;;
45466;SDS011;31212;49.734;8.490;2022-10-26T02:18:21;7.85;;;2.67;;
45466;SDS011;31212;49.734;8.490;2022-10-26T02:20:57;3.17;;;1.80;;
45466;SDS011;31212;49.734;8.490;2022-10-26T02:23:28;2.72;;;2.00;;
45466;SDS011;31212;49.734;8.490;2022-10-26T02:25:58;9.60;;;2.25;;
45466;SDS011;31212;49.734;8.490;2022-10-26T02:28:30;2.60;;;2.05;;
45466;SDS011;31212;49.734;8.490;2022-10-26T02:31:00;4.97;;;2.67;;
45466;SDS011;31212;49.734;8.490;2022-10-26T02:33:32;4.20;;;2.20;;
45466;SDS011;31212;49.734;8.490;2022-10-26T02:36:04;3.00;;;1.85;;
45466;SDS011;31212;49.734;8.490;2022-10-26T02:38:33;2.08;;;1.83;;
45466;SDS011;31212;49.734;8.490;2022-10-26T02:41:02;2.67;;;2.17;;
45466;SDS011;31212;49.734;8.490;2022-10-26T02:43:32;1.75;;;1.48;;
45466;SDS011;31212;49.734;8.490;2022-10-26T02:46:04;3.70;;;1.80;;
45466;SDS011;31212;49.734;8.490;2022-10-26T02:48:36;3.65;;;1.67;;
45466;SDS011;31212;49.734;8.490;2022-10-26T02:51:03;3.72;;;2.20;;
45466;SDS011;31212;49.734;8.490;2022-10-26T02:53:37;1.90;;;1.52;;
45466;SDS011;31212;49.734;8.490;2022-10-26T02:56:12;4.30;;;1.88;;
45466;SDS011;31212;49.734;8.490;2022-10-26T02:58:44;4.13;;;1.60;;
45466;SDS011;31212;49.734;8.490;2022-10-26T03:01:15;5.03;;;2.17;;
45466;SDS011;31212;49.734;8.490;2022-10-26T03:03:44;5.20;;;1.98;;
45466;SDS011;31212;49.734;8.490;2022-10-26T03:06:10;4.50;;;2.50;;
45466;SDS011;31212;49.734;8.490;2022-10-26T03:08:37;7.63;;;1.80;;
45466;SDS011;31212;49.734;8.490;2022-10-26T03:11:03;3.90;;;1.75;;
45466;SDS011;31212;49.734;8.490;2022-10-26T03:13:30;2.63;;;1.70;;
45466;SDS011;31212;49.734;8.490;2022-10-26T03:15:57;3.22;;;1.50;;
45466;SDS011;31212;49.734;8.490;2022-10-26T03:18:23;2.85;;;1.90;;
45466;SDS011;31212;49.734;8.490;2022-10-26T03:20:51;3.65;;;2.10;;
45466;SDS011;31212;49.734;8.490;2022-10-26T03:23:18;3.92;;;1.80;;
45466;SDS011;31212;49.734;8.490;2022-10-26T03:25:44;5.10;;;1.67;;
45466;SDS011;31212;49.734;8.490;2022-10-26T03:28:11;2.03;;;1.60;;
45466;SDS011;31212;49.734;8.490;2022-10-26T03:30:38;3.22;;;1.40;;
45466;SDS011;31212;49.734;8.490;2022-10-26T03:33:04;2.55;;;1.55;;
45466;SDS011;31212;49.734;8.490;2022-10-26T03:35:31;5.82;;;1.50;;
45466;SDS011;31212;49.734;8.490;2022-10-26T03:37:59;6.97;;;3.20;;
45466;SDS011;31212;49.734;8.490;2022-10-26T03:40:25;8.10;;;2.78;;
45466;SDS011;31212;49.734;8.490;2022-10-26T03:42:52;2.25;;;1.55;;
45466;SDS011;31212;49.734;8.490;2022-10-26T03:45:19;7.78;;;2.05;;
45466;SDS011;31212;49.734;8.490;2022-10-26T03:47:45;2.83;;;1.73;;
45466;SDS011;31212;49.734;8.490;2022-10-26T03:50:15;2.30;;;1.52;;
45466;SDS011;31212;49.734;8.490;2022-10-26T03:52:44;6.55;;;2.17;;
45466;SDS011;31212;49.734;8.490;2022-10-26T03:55:13;2.80;;;1.50;;
45466;SDS011;31212;49.734;8.490;2022-10-26T03:57:40;2.38;;;1.80;;
45466;SDS011;31212;49.734;8.490;2022-10-26T04:00:07;5.40;;;2.25;;
45466;SDS011;31212;49.734;8.490;2022-10-26T04:02:37;4.97;;;1.98;;
45466;SDS011;31212;49.734;8.490;2022-10-26T04:05:05;4.15;;;1.77;;
45466;SDS011;31212;49.734;8.490;2022-10-26T04:07:33;4.47;;;1.50;;
45466;SDS011;31212;49.734;8.490;2022-10-26T04:10:01;3.15;;;1.42;;
45466;SDS011;31212;49.734;8.490;2022-10-26T04:12:33;2.92;;;1.40;;
45466;SDS011;31212;49.734;8.490;2022-10-26T04:15:04;6.00;;;2.20;;
45466;SDS011;31212;49.734;8.490;2022-10-26T04:17:32;3.95;;;1.80;;
45466;SDS011;31212;49.734;8.490;2022-10-26T04:20:00;4.18;;;2.50;;
45466;SDS011;31212;49.734;8.490;2022-10-26T04:22:28;2.63;;;2.28;;
45466;SDS011;31212;49.734;8.490;2022-10-26T04:24:57;3.42;;;2.42;;
45466;SDS011;31212;49.734;8.490;2022-10-26T04:27:27;11.85;;;2.53;;
45466;SDS011;31212;49.734;8.490;2022-10-26T04:30:01;2.80;;;2.15;;
45466;SDS011;31212;49.734;8.490;2022-10-26T04:32:35;2.63;;;1.83;;
45466;SDS011;31212;49.734;8.490;2022-10-26T04:35:06;10.48;;;2.42;;
45466;SDS011;31212;49.734;8.490;2022-10-26T04:37:37;4.55;;;1.85;;
45466;SDS011;31212;49.734;8.490;2022-10-26T04:40:07;2.00;;;1.63;;
45466;SDS011;31212;49.734;8.490;2022-10-26T04:42:41;9.43;;;2.47;;
45466;SDS011;31212;49.734;8.490;2022-10-26T04:45:16;8.05;;;2.53;;
45466;SDS011;31212;49.734;8.490;2022-10-26T04:47:57;6.30;;;1.73;;
45466;SDS011;31212;49.734;8.490;2022-10-26T04:50:28;4.03;;;2.03;;
45466;SDS011;31212;49.734;8.490;2022-10-26T04:52:57;2.75;;;2.08;;
45466;SDS011;31212;49.734;8.490;2022-10-26T04:55:25;5.18;;;2.30;;
45466;SDS011;31212;49.734;8.490;2022-10-26T04:57:53;4.93;;;2.45;;
45466;SDS011;31212;49.734;8.490;2022-10-26T05:00:23;3.38;;;2.10;;
45466;SDS011;31212;49.734;8.490;2022-10-26T05:02:51;3.80;;;1.27;;
45466;SDS011;31212;49.734;8.490;2022-10-26T05:05:26;2.65;;;1.95;;
45466;SDS011;31212;49.734;8.490;2022-10-26T05:07:55;4.63;;;2.42;;
45466;SDS011;31212;49.734;8.490;2022-10-26T05:10:25;4.90;;;2.63;;
45466;SDS011;31212;49.734;8.490;2022-10-26T05:12:54;7.63;;;2.95;;
45466;SDS011;31212;49.734;8.490;2022-10-26T05:15:28;5.55;;;1.90;;
45466;SDS011;31212;49.734;8.490;2022-10-26T05:17:57;2.83;;;1.90;;
45466;SDS011;31212;49.734;8.490;2022-10-26T05:20:32;3.58;;;1.88;;
45466;SDS011;31212;49.734;8.490;2022-10-26T05:23:03;4.53;;;2.35;;
45466;SDS011;31212;49.734;8.490;2022-10-26T05:25:34;4.35;;;3.03;;
45466;SDS011;31212;49.734;8.490;2022-10-26T05:28:03;3.42;;;2.38;;
45466;SDS011;31212;49.734;8.490;2022-10-26T05:30:36;6.00;;;2.60;;
45466;SDS011;31212;49.734;8.490;2022-10-26T05:33:09;4.93;;;2.95;;
45466;SDS011;31212;49.734;8.490;2022-10-26T05:35:44;3.88;;;2.42;;
45466;SDS011;31212;49.734;8.490;2022-10-26T05:38:16;9.35;;;3.80;;
45466;SDS011;31212;49.734;8.490;2022-10-26T05:41:01;5.80;;;3.00;;
45466;SDS011;31212;49.734;8.490;2022-10-26T05:43:31;9.60;;;3.20;;
45466;SDS011;31212;49.734;8.490;2022-10-26T05:46:04;8.45;;;3.53;;
45466;SDS011;31212;49.734;8.490;2022-10-26T05:48:35;5.25;;;3.30;;
45466;SDS011;31212;49.734;8.490;2022-10-26T05:51:05;3.08;;;2.05;;
45466;SDS011;31212;49.734;8.490;2022-10-26T05:53:32;3.97;;;2.40;;
45466;SDS011;31212;49.734;8.490;2022-10-26T05:56:03;5.18;;;2.78;;
45466;SDS011;31212;49.734;8.490;2022-10-26T05:58:45;11.00;;;2.35;;
45466;SDS011;31212;49.734;8.490;2022-10-26T06:04:01;3.08;;;2.40;;
45466;SDS011;31212;49.734;8.490;2022-10-26T06:06:43;5.65;;;1.90;;
45466;SDS011;31212;49.734;8.490;2022-10-26T06:09:14;4.75;;;1.73;;
45466;SDS011;31212;49.734;8.490;2022-10-26T06:11:47;4.40;;;2.47;;
45466;SDS011;31212;49.734;8.490;2022-10-26T06:14:16;7.53;;;2.80;;
45466;SDS011;31212;49.734;8.490;2022-10-26T06:16:52;14.13;;;5.40;;
45466;SDS011;31212;49.734;8.490;2022-10-26T06:19:47;18.70;;;7.35;;
45466;SDS011;31212;49.734;8.490;2022-10-26T06:22:34;24.23;;;8.75;;
45466;SDS011;31212;49.734;8.490;2022-10-26T06:25:13;22.77;;;9.18;;
45466;SDS011;31212;49.734;8.490;2022-10-26T06:27:56;12.82;;;5.28;;
45466;SDS011;31212;49.734;8.490;2022-10-26T06:30:31;5.05;;;2.80;;
45466;SDS011;31212;49.734;8.490;2022-10-26T06:33:01;5.45;;;2.38;;
45466;SDS011;31212;49.734;8.490;2022-10-26T06:35:31;7.60;;;3.70;;
45466;SDS011;31212;49.734;8.490;2022-10-26T06:38:08;12.77;;;7.03;;
45466;SDS011;31212;49.734;8.490;2022-10-26T06:40:42;12.48;;;6.10;;
45466;SDS011;31212;49.734;8.490;2022-10-26T06:43:15;15.02;;;6.35;;
45466;SDS011;31212;49.734;8.490;2022-10-26T06:45:53;8.50;;;3.65;;
45466;SDS011;31212;49.734;8.490;2022-10-26T06:48:33;6.90;;;3.40;;
45466;SDS011;31212;49.734;8.490;2022-10-26T06:51:17;5.28;;;2.72;;
45466;SDS011;31212;49.734;8.490;2022-10-26T06:53:47;5.82;;;3.17;;
45466;SDS011;31212;49.734;8.490;2022-10-26T06:56:23;5.88;;;2.55;;
45466;SDS011;31212;49.734;8.490;2022-10-26T06:58:57;5.22;;;2.95;;
45466;SDS011;31212;49.734;8.490;2022-10-26T07:01:35;3.17;;;2.08;;
45466;SDS011;31212;49.734;8.490;2022-10-26T07:04:08;6.13;;;3.22;;
45466;SDS011;31212;49.734;8.490;2022-10-26T07:06:37;4.72;;;2.97;;
45466;SDS011;31212;49.734;8.490;2022-10-26T07:09:06;10.02;;;2.15;;
45466;SDS011;31212;49.734;8.490;2022-10-26T07:11:37;6.78;;;2.05;;
45466;SDS011;31212;49.734;8.490;2022-10-26T07:14:04;5.55;;;3.33;;
45466;SDS011;31212;49.734;8.490;2022-10-26T07:16:33;3.47;;;2.38;;
45466;SDS011;31212;49.734;8.490;2022-10-26T07:19:03;3.30;;;2.42;;
45466;SDS011;31212;49.734;8.490;2022-10-26T07:21:31;10.18;;;2.35;;
45466;SDS011;31212;49.734;8.490;2022-10-26T07:23:58;4.68;;;2.25;;
45466;SDS011;31212;49.734;8.490;2022-10-26T07:26:28;3.63;;;2.05;;
45466;SDS011;31212;49.734;8.490;2022-10-26T07:28:57;10.80;;;2.45;;
45466;SDS011;31212;49.734;8.490;2022-10-26T07:31:27;2.42;;;1.73;;
45466;SDS011;31212;49.734;8.490;2022-10-26T07:33:59;5.30;;;1.75;;
45466;SDS011;31212;49.734;8.490;2022-10-26T07:36:28;6.28;;;1.58;;
45466;SDS011;31212;49.734;8.490;2022-10-26T07:38:56;4.90;;;1.40;;
45466;SDS011;31212;49.734;8.490;2022-10-26T07:41:23;2.58;;;2.10;;
45466;SDS011;31212;49.734;8.490;2022-10-26T07:43:50;1.70;;;1.15;;
45466;SDS011;31212;49.734;8.490;2022-10-26T07:46:17;3.97;;;1.95;;
45466;SDS011;31212;49.734;8.490;2022-10-26T07:48:43;1.75;;;1.27;;
45466;SDS011;31212;49.734;8.490;2022-10-26T07:51:10;2.30;;;1.48;;
45466;SDS011;31212;49.734;8.490;2022-10-26T07:53:37;2.33;;;1.20;;
45466;SDS011;31212;49.734;8.490;2022-10-26T07:56:05;1.40;;;1.10;;
45466;SDS011;31212;49.734;8.490;2022-10-26T07:58:32;3.05;;;1.33;;
45466;SDS011;31212;49.734;8.490;2022-10-26T08:01:03;6.10;;;1.90;;
45466;SDS011;31212;49.734;8.490;2022-10-26T08:03:31;1.73;;;1.38;;
45466;SDS011;31212;49.734;8.490;2022-10-26T08:05:58;1.85;;;1.48;;
45466;SDS011;31212;49.734;8.490;2022-10-26T08:08:24;2.92;;;1.55;;
45466;SDS011;31212;49.734;8.490;2022-10-26T08:10:51;1.80;;;1.40;;
45466;SDS011;31212;49.734;8.490;2022-10-26T08:13:19;1.98;;;1.40;;
45466;SDS011;31212;49.734;8.490;2022-10-26T08:15:46;1.58;;;1.13;;
45466;SDS011;31212;49.734;8.490;2022-10-26T08:18:13;3.00;;;1.17;;
45466;SDS011;31212;49.734;8.490;2022-10-26T08:20:40;3.90;;;1.75;;
45466;SDS011;31212;49.734;8.490;2022-10-26T08:23:06;4.53;;;1.35;;
45466;SDS011;31212;49.734;8.490;2022-10-26T08:25:33;2.67;;;1.00;;
45466;SDS011;31212;49.734;8.490;2022-10-26T08:28:00;1.50;;;1.10;;
45466;SDS011;31212;49.734;8.490;2022-10-26T08:30:29;2.45;;;1.67;;
45466;SDS011;31212;49.734;8.490;2022-10-26T08:32:59;2.90;;;1.52;;
45466;SDS011;31212;49.734;8.490;2022-10-26T08:35:26;3.72;;;1.27;;
45466;SDS011;31212;49.734;8.490;2022-10-26T08:37:53;3.92;;;1.27;;
45466;SDS011;31212;49.734;8.490;2022-10-26T08:40:21;1.65;;;1.20;;
45466;SDS011;31212;49.734;8.490;2022-10-26T08:42:51;2.30;;;1.00;;
45466;SDS011;31212;49.734;8.490;2022-10-26T08:45:23;2.67;;;1.08;;
45466;SDS011;31212;49.734;8.490;2022-10-26T08:47:55;2.13;;;0.80;;
45466;SDS011;31212;49.734;8.490;2022-10-26T08:50:26;1.30;;;1.02;;
45466;SDS011;31212;49.734;8.490;2022-10-26T08:52:59;3.45;;;1.10;;
45466;SDS011;31212;49.734;8.490;2022-10-26T08:55:31;2.35;;;1.25;;
45466;SDS011;31212;49.734;8.490;2022-10-26T08:58:04;3.53;;;1.20;;
45466;SDS011;31212;49.734;8.490;2022-10-26T09:00:36;3.97;;;1.08;;
45466;SDS011;31212;49.734;8.490;2022-10-26T09:03:07;6.75;;;1.88;;
45466;SDS011;31212;49.734;8.490;2022-10-26T09:05:45;4.85;;;1.35;;
45466;SDS011;31212;49.734;8.490;2022-10-26T09:08:26;5.60;;;1.00;;
45466;SDS011;31212;49.734;8.490;2022-10-26T09:11:01;4.00;;;1.52;;
45466;SDS011;31212;49.734;8.490;2022-10-26T09:13:36;2.92;;;1.50;;
45466;SDS011;31212;49.734;8.490;2022-10-26T09:16:13;5.65;;;1.63;;
45466;SDS011;31212;49.734;8.490;2022-10-26T09:18:51;3.38;;;0.90;;
45466;SDS011;31212;49.734;8.490;2022-10-26T09:21:33;3.15;;;1.55;;
45466;SDS011;31212;49.734;8.490;2022-10-26T09:24:08;6.50;;;1.55;;
45466;SDS011;31212;49.734;8.490;2022-10-26T09:26:41;3.80;;;1.58;;
45466;SDS011;31212;49.734;8.490;2022-10-26T09:29:18;6.40;;;1.15;;
45466;SDS011;31212;49.734;8.490;2022-10-26T09:31:48;3.00;;;1.42;;
45466;SDS011;31212;49.734;8.490;2022-10-26T09:34:19;4.82;;;1.70;;
45466;SDS011;31212;49.734;8.490;2022-10-26T09:36:53;2.35;;;0.93;;
45466;SDS011;31212;49.734;8.490;2022-10-26T09:39:22;2.20;;;1.23;;
45466;SDS011;31212;49.734;8.490;2022-10-26T09:41:54;5.90;;;1.55;;
45466;SDS011;31212;49.734;8.490;2022-10-26T09:44:24;2.95;;;1.48;;
45466;SDS011;31212;49.734;8.490;2022-10-26T09:46:57;3.67;;;2.03;;
45466;SDS011;31212;49.734;8.490;2022-10-26T09:49:31;5.13;;;1.98;;
45466;SDS011;31212;49.734;8.490;2022-10-26T09:52:05;3.47;;;1.75;;
45466;SDS011;31212;49.734;8.490;2022-10-26T09:54:32;3.95;;;1.40;;
45466;SDS011;31212;49.734;8.490;2022-10-26T09:56:58;2.47;;;1.10;;
45466;SDS011;31212;49.734;8.490;2022-10-26T09:59:26;5.90;;;2.13;;
45466;SDS011;31212;49.734;8.490;2022-10-26T10:01:54;2.30;;;1.40;;
45466;SDS011;31212;49.734;8.490;2022-10-26T10:04:21;6.07;;;1.92;;
45466;SDS011;31212;49.734;8.490;2022-10-26T10:06:51;5.63;;;2.13;;
45466;SDS011;31212;49.734;8.490;2022-10-26T10:09:36;6.35;;;1.25;;
45466;SDS011;31212;49.734;8.490;2022-10-26T10:12:02;2.80;;;1.58;;
45466;SDS011;31212;49.734;8.490;2022-10-26T10:14:30;5.75;;;1.40;;
45466;SDS011;31212;49.734;8.490;2022-10-26T10:16:59;3.83;;;0.98;;
45466;SDS011;31212;49.734;8.490;2022-10-26T10:19:27;5.40;;;1.48;;
45466;SDS011;31212;49.734;8.490;2022-10-26T10:21:57;3.10;;;1.02;;
45466;SDS011;31212;49.734;8.490;2022-10-26T10:24:26;5.70;;;1.60;;
45466;SDS011;31212;49.734;8.490;2022-10-26T10:26:55;4.10;;;1.25;;
45466;SDS011;31212;49.734;8.490;2022-10-26T10:29:24;3.72;;;1.50;;
45466;SDS011;31212;49.734;8.490;2022-10-26T10:31:54;2.58;;;1.23;;
45466;SDS011;31212;49.734;8.490;2022-10-26T10:34:21;4.93;;;1.20;;
45466;SDS011;31212;49.734;8.490;2022-10-26T10:36:48;5.10;;;1.30;;
45466;SDS011;31212;49.734;8.490;2022-10-26T10:42:03;6.15;;;1.25;;
45466;SDS011;31212;49.734;8.490;2022-10-26T10:44:31;3.53;;;1.90;;
45466;SDS011;31212;49.734;8.490;2022-10-26T10:47:00;7.75;;;1.33;;
45466;SDS011;31212;49.734;8.490;2022-10-26T10:49:27;3.25;;;1.50;;
45466;SDS011;31212;49.734;8.490;2022-10-26T10:51:56;2.38;;;1.27;;
45466;SDS011;31212;49.734;8.490;2022-10-26T10:54:23;2.70;;;1.23;;
45466;SDS011;31212;49.734;8.490;2022-10-26T10:56:56;3.75;;;1.05;;
45466;SDS011;31212;49.734;8.490;2022-10-26T10:59:36;4.20;;;1.50;;
45466;SDS011;31212;49.734;8.490;2022-10-26T11:02:18;7.55;;;1.83;;
45466;SDS011;31212;49.734;8.490;2022-10-26T11:08:05;2.70;;;1.73;;
45466;SDS011;31212;49.734;8.490;2022-10-26T11:10:38;4.43;;;1.73;;
45466;SDS011;31212;49.734;8.490;2022-10-26T11:13:12;6.95;;;1.48;;
45466;SDS011;31212;49.734;8.490;2022-10-26T11:15:43;4.18;;;1.25;;
45466;SDS011;31212;49.734;8.490;2022-10-26T11:18:15;6.13;;;1.83;;
45466;SDS011;31212;49.734;8.490;2022-10-26T11:20:46;2.42;;;1.33;;
45466;SDS011;31212;49.734;8.490;2022-10-26T11:23:16;4.30;;;1.85;;
45466;SDS011;31212;49.734;8.490;2022-10-26T11:25:48;4.40;;;1.45;;
45466;SDS011;31212;49.734;8.490;2022-10-26T11:28:22;2.53;;;1.50;;
45466;SDS011;31212;49.734;8.490;2022-10-26T11:31:01;5.38;;;1.20;;
45466;SDS011;31212;49.734;8.490;2022-10-26T11:33:33;3.67;;;1.75;;
45466;SDS011;31212;49.734;8.490;2022-10-26T11:36:06;3.65;;;1.77;;
45466;SDS011;31212;49.734;8.490;2022-10-26T11:38:38;12.60;;;2.70;;
45466;SDS011;31212;49.734;8.490;2022-10-26T11:41:09;14.43;;;4.20;;
45466;SDS011;31212;49.734;8.490;2022-10-26T11:43:45;18.88;;;3.70;;
45466;SDS011;31212;49.734;8.490;2022-10-26T11:46:15;16.10;;;4.05;;
45466;SDS011;31212;49.734;8.490;2022-10-26T11:48:46;25.85;;;8.25;;
45466;SDS011;31212;49.734;8.490;2022-10-26T11:51:19;28.05;;;6.43;;
45466;SDS011;31212;49.734;8.490;2022-10-26T11:53:49;6.45;;;3.97;;
45466;SDS011;31212;49.734;8.490;2022-10-26T11:56:20;3.17;;;2.00;;
45466;SDS011;31212;49.734;8.490;2022-10-26T11:58:53;5.43;;;1.98;;
45466;SDS011;31212;49.734;8.490;2022-10-26T12:01:21;3.47;;;1.75;;
45466;SDS011;31212;49.734;8.490;2022-10-26T12:03:49;1.95;;;1.17;;
45466;SDS011;31212;49.734;8.490;2022-10-26T12:06:19;10.05;;;1.42;;
45466;SDS011;31212;49.734;8.490;2022-10-26T12:08:54;2.85;;;1.67;;
45466;SDS011;31212;49.734;8.490;2022-10-26T12:11:28;4.38;;;1.63;;
45466;SDS011;31212;49.734;8.490;2022-10-26T12:14:06;2.72;;;1.52;;
45466;SDS011;31212;49.734;8.490;2022-10-26T12:16:45;2.60;;;1.48;;
45466;SDS011;31212;49.734;8.490;2022-10-26T12:19:19;2.67;;;1.10;;
45466;SDS011;31212;49.734;8.490;2022-10-26T12:21:50;4.10;;;1.08;;
45466;SDS011;31212;49.734;8.490;2022-10-26T12:24:24;3.80;;;1.45;;
45466;SDS011;31212;49.734;8.490;2022-10-26T12:26:53;2.22;;;1.40;;
45466;SDS011;31212;49.734;8.490;2022-10-26T12:29:27;2.80;;;1.20;;
45466;SDS011;31212;49.734;8.490;2022-10-26T12:32:00;3.38;;;1.17;;
45466;SDS011;31212;49.734;8.490;2022-10-26T12:37:32;2.63;;;0.88;;
45466;SDS011;31212;49.734;8.490;2022-10-26T12:49:19;8.60;;;1.25;;
45466;SDS011;31212;49.734;8.490;2022-10-26T12:52:27;5.00;;;1.48;;
45466;SDS011;31212;49.734;8.490;2022-10-26T12:58:14;2.28;;;1.10;;
45466;SDS011;31212;49.734;8.490;2022-10-26T13:00:51;1.67;;;0.90;;
45466;SDS011;31212;49.734;8.490;2022-10-26T13:03:39;3.15;;;1.27;;
45466;SDS011;31212;49.734;8.490;2022-10-26T13:06:22;3.17;;;0.98;;
45466;SDS011;31212;49.734;8.490;2022-10-26T13:09:06;1.02;;;0.93;;
45466;SDS011;31212;49.734;8.490;2022-10-26T13:11:37;2.60;;;0.85;;
45466;SDS011;31212;49.734;8.490;2022-10-26T13:14:17;2.13;;;0.68;;
45466;SDS011;31212;49.734;8.490;2022-10-26T13:16:46;2.05;;;0.93;;
45466;SDS011;31212;49.734;8.490;2022-10-26T13:19:22;1.60;;;0.70;;
45466;SDS011;31212;49.734;8.490;2022-10-26T13:21:51;2.83;;;0.70;;
45466;SDS011;31212;49.734;8.490;2022-10-26T13:24:19;4.40;;;1.60;;
45466;SDS011;31212;49.734;8.490;2022-10-26T13:30:18;11.23;;;2.30;;
45466;SDS011;31212;49.734;8.490;2022-10-26T13:33:17;8.75;;;1.90;;
45466;SDS011;31212;49.734;8.490;2022-10-26T13:35:49;3.28;;;1.15;;
45466;SDS011;31212;49.734;8.490;2022-10-26T13:38:19;5.95;;;1.75;;
45466;SDS011;31212;49.734;8.490;2022-10-26T13:40:48;3.55;;;0.88;;
45466;SDS011;31212;49.734;8.490;2022-10-26T13:43:18;2.33;;;1.00;;
45466;SDS011;31212;49.734;8.490;2022-10-26T13:45:49;3.08;;;1.30;;
45466;SDS011;31212;49.734;8.490;2022-10-26T13:48:22;1.67;;;1.10;;
45466;SDS011;31212;49.734;8.490;2022-10-26T13:50:56;3.85;;;1.35;;
45466;SDS011;31212;49.734;8.490;2022-10-26T13:53:27;4.75;;;1.27;;
45466;SDS011;31212;49.734;8.490;2022-10-26T13:56:02;6.72;;;1.67;;
45466;SDS011;31212;49.734;8.490;2022-10-26T13:58:33;3.90;;;1.67;;
45466;SDS011;31212;49.734;8.490;2022-10-26T14:01:11;3.40;;;0.98;;
45466;SDS011;31212;49.734;8.490;2022-10-26T14:03:41;2.38;;;1.10;;
45466;SDS011;31212;49.734;8.490;2022-10-26T14:06:11;3.35;;;1.30;;
45466;SDS011;31212;49.734;8.490;2022-10-26T14:08:42;5.00;;;0.98;;
45466;SDS011;31212;49.734;8.490;2022-10-26T14:11:11;1.63;;;0.82;;
45466;SDS011;31212;49.734;8.490;2022-10-26T14:13:41;8.07;;;1.13;;
45466;SDS011;31212;49.734;8.490;2022-10-26T14:16:08;3.70;;;1.40;;
45466;SDS011;31212;49.734;8.490;2022-10-26T14:18:35;0.57;;;0.50;;
45466;SDS011;31212;49.734;8.490;2022-10-26T14:21:03;2.85;;;0.75;;
45466;SDS011;31212;49.734;8.490;2022-10-26T14:23:34;3.30;;;0.90;;
45466;SDS011;31212;49.734;8.490;2022-10-26T14:26:03;4.93;;;1.00;;
45466;SDS011;31212;49.734;8.490;2022-10-26T14:28:30;2.88;;;1.00;;
45466;SDS011;31212;49.734;8.490;2022-10-26T14:31:10;2.53;;;0.82;;
45466;SDS011;31212;49.734;8.490;2022-10-26T14:33:37;1.92;;;1.02;;
45466;SDS011;31212;49.734;8.490;2022-10-26T14:36:04;3.80;;;1.02;;
45466;SDS011;31212;49.734;8.490;2022-10-26T14:38:36;3.53;;;1.08;;
45466;SDS011;31212;49.734;8.490;2022-10-26T14:41:09;3.80;;;1.38;;
45466;SDS011;31212;49.734;8.490;2022-10-26T14:43:36;1.85;;;1.10;;
45466;SDS011;31212;49.734;8.490;2022-10-26T14:46:03;3.63;;;1.70;;
45466;SDS011;31212;49.734;8.490;2022-10-26T14:48:31;2.42;;;1.00;;
45466;SDS011;31212;49.734;8.490;2022-10-26T14:51:00;4.07;;;1.90;;
45466;SDS011;31212;49.734;8.490;2022-10-26T14:53:30;3.20;;;1.20;;
45466;SDS011;31212;49.734;8.490;2022-10-26T14:56:02;1.33;;;0.90;;
45466;SDS011;31212;49.734;8.490;2022-10-26T14:58:31;2.47;;;1.15;;
45466;SDS011;31212;49.734;8.490;2022-10-26T15:01:15;1.48;;;1.17;;
45466;SDS011;31212;49.734;8.490;2022-10-26T15:03:51;3.13;;;1.77;;
45466;SDS011;31212;49.734;8.490;2022-10-26T15:06:33;5.22;;;1.30;;
45466;SDS011;31212;49.734;8.490;2022-10-26T15:09:04;4.47;;;1.17;;
45466;SDS011;31212;49.734;8.490;2022-10-26T15:11:33;4.10;;;1.17;;
45466;SDS011;31212;49.734;8.490;2022-10-26T15:14:00;5.03;;;1.80;;
45466;SDS011;31212;49.734;8.490;2022-10-26T15:16:28;3.75;;;1.35;;
45466;SDS011;31212;49.734;8.490;2022-10-26T15:18:58;5.45;;;1.55;;
45466;SDS011;31212;49.734;8.490;2022-10-26T15:21:34;5.28;;;1.80;;
45466;SDS011;31212;49.734;8.490;2022-10-26T15:26:42;4.70;;;1.92;;
45466;SDS011;31212;49.734;8.490;2022-10-26T15:29:12;4.45;;;1.73;;
45466;SDS011;31212;49.734;8.490;2022-10-26T15:31:59;1.60;;;1.00;;
45466;SDS011;31212;49.734;8.490;2022-10-26T15:34:26;4.97;;;1.10;;
45466;SDS011;31212;49.734;8.490;2022-10-26T15:36:52;3.17;;;1.80;;
45466;SDS011;31212;49.734;8.490;2022-10-26T15:39:19;3.30;;;1.35;;
45466;SDS011;31212;49.734;8.490;2022-10-26T15:41:48;3.92;;;1.92;;
45466;SDS011;31212;49.734;8.490;2022-10-26T15:44:17;2.47;;;1.00;;
45466;SDS011;31212;49.734;8.490;2022-10-26T15:46:46;1.50;;;1.02;;